Time;durP1;ratioP1;P1;durP2;ratioP2;P2;SDS_P1;SDS_P2;PMS_P1;PMS_P2;Temp;Humidity;BMP_temperature;BMP_pressure;BME280_temperature;BME280_humidity;BME280_pressure;Samples;Min_cycle;Max_cycle;Signal;HPM_P1;HPM_P2
2023/09/29 00:01:38;;;;;;;1.30;1.20;;;;;;;;;;5109596;28;20024;-79
2023/09/29 00:04:05;;;;;;;1.10;1.00;;;;;;;;;;5106571;28;20459;-80
2023/09/29 00:06:35;;;;;;;1.08;1.08;;;;;;;;;;5109184;28;20028;-80
2023/09/29 00:09:01;;;;;;;1.27;1.17;;;;;;;;;;5093474;28;20028;-79
2023/09/29 00:11:31;;;;;;;1.67;1.40;;;;;;;;;;5101638;28;20064;-78
2023/09/29 00:13:57;;;;;;;1.60;1.50;;;;;;;;;;5114463;28;20039;-79
2023/09/29 00:16:23;;;;;;;1.17;1.08;;;;;;;;;;5092767;28;20051;-80
2023/09/29 00:18:49;;;;;;;1.70;1.40;;;;;;;;;;5081630;28;20029;-80
2023/09/29 00:21:16;;;;;;;0.90;0.90;;;;;;;;;;5084940;28;20055;-81
2023/09/29 00:23:42;;;;;;;1.48;1.30;;;;;;;;;;5089841;28;20019;-80
2023/09/29 00:26:09;;;;;;;1.95;1.40;;;;;;;;;;5102007;28;20028;-79
2023/09/29 00:28:35;;;;;;;1.55;1.42;;;;;;;;;;5101990;28;20052;-81
2023/09/29 00:31:02;;;;;;;1.98;1.55;;;;;;;;;;5100845;28;20020;-80
2023/09/29 00:33:28;;;;;;;1.88;1.70;;;;;;;;;;5100866;28;20081;-80
2023/09/29 00:35:54;;;;;;;1.50;1.30;;;;;;;;;;5097593;28;20133;-81
2023/09/29 00:38:20;;;;;;;1.83;1.33;;;;;;;;;;5081504;28;20020;-79
2023/09/29 00:40:46;;;;;;;1.63;1.52;;;;;;;;;;5097434;28;20024;-77
2023/09/29 00:43:15;;;;;;;1.60;1.48;;;;;;;;;;5084162;28;20372;-79
2023/09/29 00:45:42;;;;;;;1.60;1.50;;;;;;;;;;5083883;28;20051;-80
2023/09/29 00:48:10;;;;;;;1.67;1.27;;;;;;;;;;5080278;28;20103;-79
2023/09/29 00:50:39;;;;;;;1.65;1.33;;;;;;;;;;5079220;28;20391;-80
2023/09/29 00:53:07;;;;;;;1.50;1.40;;;;;;;;;;5084406;28;20036;-81
2023/09/29 00:55:36;;;;;;;1.73;1.58;;;;;;;;;;5099620;28;20031;-80
2023/09/29 00:58:04;;;;;;;1.40;1.30;;;;;;;;;;5093956;28;20036;-79
2023/09/29 01:00:31;;;;;;;1.15;1.10;;;;;;;;;;5081693;28;20468;-80
2023/09/29 01:02:58;;;;;;;1.45;1.30;;;;;;;;;;5080114;28;20104;-81
2023/09/29 01:05:25;;;;;;;1.13;1.00;;;;;;;;;;5078895;28;20040;-81
2023/09/29 01:07:51;;;;;;;1.00;1.00;;;;;;;;;;5081182;28;20025;-80
2023/09/29 01:10:18;;;;;;;1.48;1.20;;;;;;;;;;5095338;28;20059;-81
2023/09/29 01:12:44;;;;;;;1.35;1.25;;;;;;;;;;5100693;28;20023;-81
2023/09/29 01:15:14;;;;;;;1.38;1.27;;;;;;;;;;5100894;28;20097;-81
2023/09/29 01:17:44;;;;;;;1.30;1.20;;;;;;;;;;5100082;28;20019;-81
2023/09/29 01:20:16;;;;;;;1.58;1.40;;;;;;;;;;5100663;28;20055;-79
2023/09/29 01:22:46;;;;;;;1.27;1.17;;;;;;;;;;5094290;28;20107;-80
2023/09/29 01:25:13;;;;;;;2.17;1.63;;;;;;;;;;5099704;28;20016;-79
2023/09/29 01:27:39;;;;;;;2.08;1.48;;;;;;;;;;5105272;28;20024;-79
2023/09/29 01:30:07;;;;;;;2.17;1.73;;;;;;;;;;5092984;28;20024;-81
2023/09/29 01:32:34;;;;;;;1.40;1.30;;;;;;;;;;5099311;28;20536;-80
2023/09/29 01:35:01;;;;;;;1.30;1.20;;;;;;;;;;5099215;28;20159;-80
2023/09/29 01:37:28;;;;;;;1.00;1.00;;;;;;;;;;5098691;28;20028;-80
2023/09/29 01:39:54;;;;;;;1.25;1.15;;;;;;;;;;5099078;28;20519;-80
2023/09/29 01:42:20;;;;;;;1.83;1.48;;;;;;;;;;5099526;28;20027;-81
2023/09/29 01:44:46;;;;;;;0.95;0.95;;;;;;;;;;5100386;28;20157;-79
2023/09/29 01:47:12;;;;;;;1.33;1.23;;;;;;;;;;5100039;28;20027;-80
2023/09/29 01:49:39;;;;;;;1.23;1.13;;;;;;;;;;5087076;28;20036;-80
2023/09/29 01:52:07;;;;;;;1.27;1.13;;;;;;;;;;5079943;28;20050;-80
2023/09/29 01:54:33;;;;;;;1.10;1.05;;;;;;;;;;5096391;28;20024;-81
2023/09/29 01:57:01;;;;;;;1.27;1.13;;;;;;;;;;5100104;28;20032;-80
2023/09/29 01:59:28;;;;;;;1.25;1.00;;;;;;;;;;5101420;28;20020;-79
2023/09/29 02:01:54;;;;;;;1.27;1.17;;;;;;;;;;5110882;28;20032;-77
2023/09/29 02:04:21;;;;;;;1.25;1.15;;;;;;;;;;5106559;28;20028;-77
2023/09/29 02:06:49;;;;;;;0.90;0.90;;;;;;;;;;5106126;28;20020;-79
2023/09/29 02:09:16;;;;;;;1.10;1.00;;;;;;;;;;5108660;28;20012;-77
2023/09/29 02:11:45;;;;;;;1.92;1.20;;;;;;;;;;5115111;28;20078;-80
2023/09/29 02:14:11;;;;;;;0.90;0.90;;;;;;;;;;5120946;28;20016;-75
2023/09/29 02:16:38;;;;;;;0.75;0.75;;;;;;;;;;5120146;28;20031;-76
2023/09/29 02:19:06;;;;;;;1.35;1.20;;;;;;;;;;5120794;28;20043;-75
2023/09/29 02:21:32;;;;;;;1.30;1.20;;;;;;;;;;5120357;28;20044;-76
2023/09/29 02:23:59;;;;;;;1.58;1.10;;;;;;;;;;5120915;28;20024;-76
2023/09/29 02:26:28;;;;;;;1.42;1.33;;;;;;;;;;5120691;28;20020;-75
2023/09/29 02:28:56;;;;;;;2.42;1.38;;;;;;;;;;5117593;28;20021;-80
2023/09/29 02:31:22;;;;;;;1.17;1.08;;;;;;;;;;5097629;28;20031;-81
2023/09/29 02:33:50;;;;;;;2.00;1.80;;;;;;;;;;5105491;28;20032;-77
2023/09/29 02:36:16;;;;;;;2.17;1.42;;;;;;;;;;5103243;28;20506;-78
2023/09/29 02:38:42;;;;;;;1.40;1.30;;;;;;;;;;5106967;28;20032;-79
2023/09/29 02:41:09;;;;;;;1.85;1.50;;;;;;;;;;5097634;28;20033;-79
2023/09/29 02:43:36;;;;;;;1.88;1.63;;;;;;;;;;5087997;28;20051;-78
2023/09/29 02:46:02;;;;;;;1.40;1.30;;;;;;;;;;5087111;28;20598;-79
2023/09/29 02:48:28;;;;;;;1.52;1.42;;;;;;;;;;5086610;28;20025;-79
2023/09/29 02:50:55;;;;;;;1.40;1.30;;;;;;;;;;5098258;28;20055;-78
2023/09/29 02:53:21;;;;;;;1.73;1.48;;;;;;;;;;5102211;28;20024;-79
2023/09/29 02:55:50;;;;;;;1.60;1.50;;;;;;;;;;5114985;28;20012;-79
2023/09/29 02:58:17;;;;;;;2.33;1.88;;;;;;;;;;5108366;28;20020;-78
2023/09/29 03:00:43;;;;;;;1.60;1.48;;;;;;;;;;5107670;28;20448;-79
2023/09/29 03:03:09;;;;;;;1.05;0.95;;;;;;;;;;5104110;28;20024;-78
2023/09/29 03:06:07;;;;;;;1.30;1.20;;;;;;;;;;5088216;28;20032;-79
2023/09/29 03:11:51;;;;;;;1.40;1.30;;;;;;;;;;5085412;28;20074;-77
2023/09/29 03:14:17;;;;;;;1.30;1.20;;;;;;;;;;5098614;28;20024;-78
2023/09/29 03:16:45;;;;;;;1.00;0.90;;;;;;;;;;5104480;28;20524;-79
2023/09/29 03:19:11;;;;;;;1.30;1.17;;;;;;;;;;5099306;28;20028;-79
2023/09/29 03:21:37;;;;;;;1.23;1.10;;;;;;;;;;5096394;28;20028;-78
2023/09/29 03:24:04;;;;;;;1.35;1.25;;;;;;;;;;5098147;28;20098;-78
2023/09/29 03:26:31;;;;;;;1.10;1.00;;;;;;;;;;5128490;28;20040;-80
2023/09/29 03:28:57;;;;;;;1.17;1.08;;;;;;;;;;5116481;28;20039;-78
2023/09/29 03:31:24;;;;;;;0.95;0.90;;;;;;;;;;5094167;28;20024;-77
2023/09/29 03:33:52;;;;;;;1.48;1.38;;;;;;;;;;5093563;28;20069;-78
2023/09/29 03:36:20;;;;;;;1.50;1.40;;;;;;;;;;5089460;28;20031;-78
2023/09/29 03:38:46;;;;;;;1.05;0.93;;;;;;;;;;5102389;28;20028;-79
2023/09/29 03:41:13;;;;;;;1.17;1.08;;;;;;;;;;5099783;28;20035;-77
2023/09/29 03:43:40;;;;;;;1.15;1.05;;;;;;;;;;5106217;28;20096;-78
2023/09/29 03:46:06;;;;;;;0.95;0.95;;;;;;;;;;5107700;28;20016;-79
2023/09/29 03:48:32;;;;;;;1.17;1.00;;;;;;;;;;5105558;28;20069;-79
2023/09/29 03:51:02;;;;;;;1.08;0.90;;;;;;;;;;5099727;28;20445;-78
2023/09/29 03:53:28;;;;;;;0.90;0.90;;;;;;;;;;5098927;28;20024;-78
2023/09/29 03:55:56;;;;;;;1.00;0.90;;;;;;;;;;5101600;28;20028;-78
2023/09/29 03:58:23;;;;;;;1.95;1.35;;;;;;;;;;5101811;28;20029;-78
2023/09/29 04:00:49;;;;;;;0.70;0.70;;;;;;;;;;5108950;28;20058;-78
2023/09/29 04:03:16;;;;;;;1.15;1.00;;;;;;;;;;5114688;28;20008;-78
2023/09/29 04:05:42;;;;;;;1.00;0.90;;;;;;;;;;5109883;28;20020;-78
2023/09/29 04:08:08;;;;;;;1.00;0.90;;;;;;;;;;5111071;28;20027;-78
2023/09/29 04:10:36;;;;;;;1.20;1.10;;;;;;;;;;5118787;28;20020;-78
2023/09/29 04:13:03;;;;;;;1.10;1.00;;;;;;;;;;5104655;28;20016;-77
2023/09/29 04:15:29;;;;;;;1.40;1.20;;;;;;;;;;5096240;28;20042;-77
2023/09/29 04:17:55;;;;;;;1.42;1.30;;;;;;;;;;5093142;28;20028;-79
2023/09/29 04:20:21;;;;;;;1.23;1.10;;;;;;;;;;5090253;28;20020;-78
2023/09/29 04:22:47;;;;;;;1.88;1.27;;;;;;;;;;5106847;28;20014;-78
2023/09/29 04:25:13;;;;;;;1.33;1.23;;;;;;;;;;5098101;28;20051;-77
2023/09/29 04:27:40;;;;;;;1.52;1.38;;;;;;;;;;5089427;28;20548;-78
2023/09/29 04:30:08;;;;;;;1.50;1.40;;;;;;;;;;5076547;28;20021;-79
2023/09/29 04:32:34;;;;;;;1.05;1.05;;;;;;;;;;5084162;28;20016;-78
2023/09/29 04:35:00;;;;;;;1.52;1.42;;;;;;;;;;5087258;28;20032;-77
2023/09/29 04:37:26;;;;;;;1.15;1.05;;;;;;;;;;5104144;28;20670;-81
2023/09/29 04:39:52;;;;;;;1.38;1.27;;;;;;;;;;5098946;28;20537;-78
2023/09/29 04:42:18;;;;;;;2.00;1.23;;;;;;;;;;5096843;28;20036;-77
2023/09/29 04:44:44;;;;;;;1.35;1.25;;;;;;;;;;5091030;28;20020;-77
2023/09/29 04:53:42;;;;;;;1.50;1.25;;;;;;;;;;5083157;28;20075;-83
2023/09/29 05:11:29;;;;;;;1.48;1.38;;;;;;;;;;5101079;28;20054;-77
2023/09/29 05:17:33;;;;;;;2.25;1.60;;;;;;;;;;5073888;28;20076;-75
2023/09/29 05:35:24;;;;;;;2.30;1.65;;;;;;;;;;5076830;28;20047;-75
2023/09/29 05:38:09;;;;;;;2.40;1.80;;;;;;;;;;5093035;28;20028;-75
2023/09/29 05:40:38;;;;;;;2.00;1.63;;;;;;;;;;5073368;28;20502;-76
2023/09/29 05:43:04;;;;;;;2.17;1.55;;;;;;;;;;5073705;28;20047;-76
2023/09/29 05:45:30;;;;;;;2.53;2.00;;;;;;;;;;5085863;28;20021;-75
2023/09/29 05:47:56;;;;;;;2.45;1.90;;;;;;;;;;5091730;28;20020;-75
2023/09/29 05:50:22;;;;;;;2.15;1.90;;;;;;;;;;5093062;28;20028;-75
2023/09/29 05:52:49;;;;;;;2.80;2.22;;;;;;;;;;5093256;28;20086;-76
2023/09/29 05:55:15;;;;;;;2.45;1.98;;;;;;;;;;5084188;28;20115;-75
2023/09/29 05:57:41;;;;;;;2.65;1.83;;;;;;;;;;5072939;28;20055;-76
2023/09/29 06:00:07;;;;;;;3.08;1.90;;;;;;;;;;5072858;28;20040;-76
2023/09/29 06:02:34;;;;;;;1.88;1.50;;;;;;;;;;5073257;28;20074;-77
2023/09/29 06:05:01;;;;;;;1.90;1.70;;;;;;;;;;5076034;28;20103;-75
2023/09/29 06:07:28;;;;;;;2.05;1.85;;;;;;;;;;5093881;28;20382;-76
2023/09/29 06:09:54;;;;;;;2.70;1.90;;;;;;;;;;5108040;28;20024;-76
2023/09/29 06:12:20;;;;;;;1.85;1.70;;;;;;;;;;5103276;28;20032;-75
2023/09/29 06:14:46;;;;;;;2.53;1.90;;;;;;;;;;5094401;28;20032;-76
2023/09/29 06:17:12;;;;;;;1.70;1.60;;;;;;;;;;5092581;28;20032;-75
2023/09/29 06:19:38;;;;;;;1.70;1.60;;;;;;;;;;5093051;28;20031;-77
2023/09/29 06:22:05;;;;;;;2.10;1.85;;;;;;;;;;5091978;28;20058;-76
2023/09/29 06:24:31;;;;;;;2.53;1.48;;;;;;;;;;5092540;28;20012;-76
2023/09/29 06:26:57;;;;;;;3.13;1.95;;;;;;;;;;5092032;28;20420;-76
2023/09/29 06:29:23;;;;;;;2.22;1.67;;;;;;;;;;5092966;28;20021;-76
2023/09/29 06:31:49;;;;;;;2.40;1.92;;;;;;;;;;5089352;28;20085;-76
2023/09/29 06:34:16;;;;;;;2.35;1.92;;;;;;;;;;5092706;28;20031;-75
2023/09/29 06:36:43;;;;;;;3.05;2.05;;;;;;;;;;5091477;28;20024;-76
2023/09/29 06:39:09;;;;;;;2.25;2.00;;;;;;;;;;5092929;28;20079;-77
2023/09/29 06:41:36;;;;;;;3.60;1.92;;;;;;;;;;5092861;28;20024;-75
2023/09/29 06:44:02;;;;;;;2.20;1.80;;;;;;;;;;5098979;28;20095;-75
2023/09/29 06:46:28;;;;;;;2.80;2.08;;;;;;;;;;5096102;28;20028;-74
2023/09/29 06:48:54;;;;;;;2.00;1.80;;;;;;;;;;5083250;28;20016;-76
2023/09/29 06:51:20;;;;;;;1.88;1.70;;;;;;;;;;5084746;28;20025;-76
2023/09/29 06:53:46;;;;;;;1.90;1.67;;;;;;;;;;5090224;28;20123;-76
2023/09/29 06:56:12;;;;;;;1.50;1.40;;;;;;;;;;5077584;28;20035;-74
2023/09/29 06:58:38;;;;;;;1.90;1.58;;;;;;;;;;5095910;28;20436;-75
2023/09/29 07:01:04;;;;;;;2.05;1.83;;;;;;;;;;5096143;28;20028;-76
2023/09/29 07:03:31;;;;;;;1.67;1.58;;;;;;;;;;5094605;28;20032;-75
2023/09/29 07:06:01;;;;;;;2.25;1.70;;;;;;;;;;5094780;28;20020;-76
2023/09/29 07:08:28;;;;;;;1.65;1.42;;;;;;;;;;5081319;28;20164;-75
2023/09/29 07:10:54;;;;;;;1.70;1.40;;;;;;;;;;5076049;28;20058;-75
2023/09/29 07:13:20;;;;;;;1.77;1.67;;;;;;;;;;5075855;28;20024;-75
2023/09/29 07:15:47;;;;;;;2.97;1.75;;;;;;;;;;5076193;28;20475;-76
2023/09/29 07:18:13;;;;;;;2.28;2.00;;;;;;;;;;5084888;28;20028;-76
2023/09/29 07:20:40;;;;;;;2.08;1.88;;;;;;;;;;5096305;28;20111;-76
2023/09/29 07:23:08;;;;;;;2.45;1.83;;;;;;;;;;5094162;28;20027;-76
2023/09/29 07:25:35;;;;;;;2.90;1.98;;;;;;;;;;5095826;28;20012;-76
2023/09/29 07:28:01;;;;;;;2.65;2.00;;;;;;;;;;5091457;28;20474;-76
2023/09/29 07:30:27;;;;;;;3.47;2.05;;;;;;;;;;5076108;28;20032;-77
2023/09/29 07:32:53;;;;;;;2.17;1.75;;;;;;;;;;5075474;28;20021;-77
2023/09/29 07:35:19;;;;;;;2.45;1.83;;;;;;;;;;5075862;28;20024;-77
2023/09/29 07:37:46;;;;;;;1.80;1.70;;;;;;;;;;5075351;28;20065;-77
2023/09/29 07:40:13;;;;;;;2.08;1.88;;;;;;;;;;5099147;28;20042;-76
2023/09/29 07:42:39;;;;;;;1.42;1.33;;;;;;;;;;5098815;28;20026;-76
2023/09/29 07:45:05;;;;;;;1.77;1.65;;;;;;;;;;5102654;28;20020;-77
2023/09/29 07:47:31;;;;;;;1.42;1.33;;;;;;;;;;5110116;28;20027;-77
2023/09/29 07:49:58;;;;;;;1.30;1.20;;;;;;;;;;5112887;28;20074;-76
2023/09/29 07:52:28;;;;;;;1.50;1.40;;;;;;;;;;5113196;28;20084;-77
2023/09/29 07:54:54;;;;;;;2.55;1.60;;;;;;;;;;5109727;28;20052;-77
2023/09/29 07:57:20;;;;;;;1.85;1.48;;;;;;;;;;5113774;28;20550;-77
2023/09/29 07:59:46;;;;;;;2.13;1.92;;;;;;;;;;5112251;28;20042;-76
2023/09/29 08:02:12;;;;;;;1.75;1.65;;;;;;;;;;5112587;28;20039;-77
2023/09/29 08:04:39;;;;;;;1.42;1.30;;;;;;;;;;5110594;28;20024;-76
2023/09/29 08:07:05;;;;;;;1.60;1.50;;;;;;;;;;5112190;28;20050;-76
2023/09/29 08:09:31;;;;;;;2.53;1.83;;;;;;;;;;5103473;28;20024;-76
2023/09/29 08:11:57;;;;;;;1.70;1.55;;;;;;;;;;5087156;28;20055;-77
2023/09/29 08:14:23;;;;;;;1.88;1.70;;;;;;;;;;5078506;28;20438;-76
2023/09/29 08:16:49;;;;;;;1.67;1.58;;;;;;;;;;5075138;28;20563;-76
2023/09/29 08:19:15;;;;;;;2.42;2.17;;;;;;;;;;5076812;28;20028;-77
2023/09/29 08:21:42;;;;;;;1.73;1.63;;;;;;;;;;5095980;28;20050;-76
2023/09/29 08:24:08;;;;;;;2.58;1.90;;;;;;;;;;5095361;28;20066;-77
2023/09/29 08:26:34;;;;;;;2.25;1.80;;;;;;;;;;5095720;28;20016;-77
2023/09/29 08:29:00;;;;;;;2.95;2.20;;;;;;;;;;5095989;28;20508;-77
2023/09/29 08:31:27;;;;;;;1.98;1.65;;;;;;;;;;5096145;28;20115;-75
2023/09/29 08:33:53;;;;;;;1.67;1.58;;;;;;;;;;5097345;28;20088;-77
2023/09/29 08:36:19;;;;;;;2.38;2.17;;;;;;;;;;5096067;28;20080;-77
2023/09/29 08:38:45;;;;;;;1.63;1.52;;;;;;;;;;5095059;28;20130;-76
2023/09/29 08:41:12;;;;;;;1.98;1.83;;;;;;;;;;5083437;28;20059;-76
2023/09/29 08:43:40;;;;;;;1.92;1.80;;;;;;;;;;5074135;28;20498;-76
2023/09/29 08:46:09;;;;;;;2.90;2.17;;;;;;;;;;5074335;28;20238;-76
2023/09/29 08:48:36;;;;;;;1.88;1.77;;;;;;;;;;5074164;28;20016;-76
2023/09/29 08:51:03;;;;;;;3.85;2.10;;;;;;;;;;5073711;28;20051;-77
2023/09/29 08:53:30;;;;;;;2.05;1.95;;;;;;;;;;5073803;28;20093;-76
2023/09/29 08:55:57;;;;;;;2.25;2.05;;;;;;;;;;5074231;28;20025;-77
2023/09/29 08:58:24;;;;;;;2.25;2.05;;;;;;;;;;5073519;28;20024;-77
2023/09/29 09:00:51;;;;;;;2.30;1.85;;;;;;;;;;5075203;28;20070;-78
2023/09/29 09:03:18;;;;;;;3.05;2.75;;;;;;;;;;5093605;28;20097;-76
2023/09/29 09:05:44;;;;;;;4.03;3.13;;;;;;;;;;5093843;28;20046;-76
2023/09/29 09:08:11;;;;;;;3.25;2.60;;;;;;;;;;5093471;28;20056;-77
2023/09/29 09:10:38;;;;;;;3.58;2.90;;;;;;;;;;5092924;28;20078;-77
2023/09/29 09:13:08;;;;;;;3.90;3.05;;;;;;;;;;5076972;28;20031;-77
2023/09/29 09:15:34;;;;;;;3.78;2.90;;;;;;;;;;5073421;28;20079;-76
2023/09/29 09:18:00;;;;;;;3.35;3.05;;;;;;;;;;5072679;28;20024;-76
2023/09/29 09:20:26;;;;;;;3.03;2.67;;;;;;;;;;5073399;28;20036;-77
2023/09/29 09:22:59;;;;;;;3.90;2.83;;;;;;;;;;5074716;28;20517;-78
2023/09/29 09:25:35;;;;;;;2.88;2.60;;;;;;;;;;5074862;28;20035;-77
2023/09/29 09:28:02;;;;;;;2.58;2.35;;;;;;;;;;5073812;28;20024;-78
2023/09/29 09:30:28;;;;;;;3.28;2.80;;;;;;;;;;5075207;28;20364;-75
2023/09/29 09:32:54;;;;;;;4.10;2.88;;;;;;;;;;5083106;28;20028;-77
2023/09/29 09:35:27;;;;;;;4.80;2.53;;;;;;;;;;5094942;28;20111;-77
2023/09/29 09:37:54;;;;;;;4.40;2.90;;;;;;;;;;5094144;28;20436;-76
2023/09/29 09:40:20;;;;;;;3.05;2.67;;;;;;;;;;5093969;28;20432;-77
2023/09/29 09:42:47;;;;;;;4.95;3.13;;;;;;;;;;5092243;28;20054;-77
2023/09/29 09:45:13;;;;;;;3.17;2.78;;;;;;;;;;5094289;28;20050;-77
2023/09/29 09:47:41;;;;;;;3.53;2.70;;;;;;;;;;5094313;28;20364;-77
2023/09/29 09:50:10;;;;;;;2.65;2.45;;;;;;;;;;5093978;28;20041;-76
2023/09/29 09:52:36;;;;;;;3.45;2.55;;;;;;;;;;5092946;28;20472;-77
2023/09/29 09:55:27;;;;;;;2.28;2.13;;;;;;;;;;5093863;28;20114;-77
2023/09/29 09:57:53;;;;;;;2.47;2.28;;;;;;;;;;5093875;28;20095;-77
2023/09/29 10:00:19;;;;;;;2.40;2.20;;;;;;;;;;5094290;28;20028;-77
2023/09/29 10:02:47;;;;;;;2.28;2.08;;;;;;;;;;5094471;28;20024;-77
2023/09/29 10:05:22;;;;;;;2.08;1.92;;;;;;;;;;5094416;28;20073;-77
2023/09/29 10:07:53;;;;;;;2.13;1.92;;;;;;;;;;5094484;28;20104;-76
2023/09/29 10:10:35;;;;;;;2.33;1.92;;;;;;;;;;5103310;28;20020;-74
2023/09/29 10:13:05;;;;;;;4.22;2.30;;;;;;;;;;5102306;28;20049;-75
2023/09/29 10:15:32;;;;;;;2.13;1.50;;;;;;;;;;5073620;28;20025;-75
2023/09/29 10:17:58;;;;;;;1.92;1.83;;;;;;;;;;5057321;28;20024;-75
2023/09/29 10:20:26;;;;;;;3.55;2.30;;;;;;;;;;5074138;28;20028;-76
2023/09/29 10:23:03;;;;;;;2.83;2.63;;;;;;;;;;5074825;28;20020;-76
2023/09/29 10:25:30;;;;;;;3.92;2.30;;;;;;;;;;5094715;28;20020;-76
2023/09/29 10:28:00;;;;;;;2.80;2.60;;;;;;;;;;5096810;28;20020;-75
2023/09/29 10:30:29;;;;;;;3.58;2.88;;;;;;;;;;5097065;28;20028;-76
2023/09/29 10:33:05;;;;;;;3.75;3.00;;;;;;;;;;5099961;28;20032;-75
2023/09/29 10:35:33;;;;;;;5.18;3.25;;;;;;;;;;5098746;28;20371;-76
2023/09/29 10:38:11;;;;;;;5.72;2.50;;;;;;;;;;5099344;28;20555;-77
2023/09/29 10:40:37;;;;;;;3.70;3.30;;;;;;;;;;5097725;28;20032;-76
2023/09/29 10:43:04;;;;;;;3.30;3.00;;;;;;;;;;5097873;28;20482;-75
2023/09/29 10:45:37;;;;;;;3.47;2.72;;;;;;;;;;5096227;28;20035;-75
2023/09/29 10:48:07;;;;;;;3.25;2.78;;;;;;;;;;5096678;28;20024;-75
2023/09/29 10:50:40;;;;;;;3.13;2.88;;;;;;;;;;5094875;28;20405;-76
2023/09/29 10:53:07;;;;;;;3.45;3.00;;;;;;;;;;5079507;28;20028;-76
2023/09/29 10:55:35;;;;;;;2.85;2.60;;;;;;;;;;5076121;28;20426;-75
2023/09/29 10:58:03;;;;;;;3.58;3.13;;;;;;;;;;5076180;28;20024;-76
2023/09/29 11:00:29;;;;;;;3.28;2.92;;;;;;;;;;5075979;28;20020;-77
2023/09/29 11:02:55;;;;;;;4.25;3.35;;;;;;;;;;5086972;28;20554;-77
2023/09/29 11:05:21;;;;;;;3.35;2.80;;;;;;;;;;5096471;28;20020;-75
2023/09/29 11:07:48;;;;;;;2.40;2.20;;;;;;;;;;5095740;28;20028;-76
2023/09/29 11:10:15;;;;;;;3.45;2.58;;;;;;;;;;5095491;28;20098;-76
2023/09/29 11:12:45;;;;;;;2.50;2.30;;;;;;;;;;5088054;28;20115;-76
2023/09/29 11:15:12;;;;;;;2.53;2.22;;;;;;;;;;5076033;28;20059;-76
2023/09/29 11:17:48;;;;;;;2.60;2.40;;;;;;;;;;5075720;28;20028;-76
2023/09/29 11:20:27;;;;;;;4.38;2.50;;;;;;;;;;5075713;28;20021;-76
2023/09/29 11:23:01;;;;;;;3.25;2.20;;;;;;;;;;5081414;28;20406;-77
2023/09/29 11:25:27;;;;;;;3.08;2.17;;;;;;;;;;5095515;28;20099;-75
2023/09/29 11:27:53;;;;;;;2.72;2.45;;;;;;;;;;5093933;28;20023;-76
2023/09/29 11:30:24;;;;;;;2.63;2.40;;;;;;;;;;5095117;28;20375;-74
2023/09/29 11:32:53;;;;;;;4.30;2.65;;;;;;;;;;5091992;28;20028;-77
2023/09/29 11:35:21;;;;;;;3.30;2.65;;;;;;;;;;5075134;28;20052;-76
2023/09/29 11:37:47;;;;;;;2.30;2.10;;;;;;;;;;5075507;28;20379;-77
2023/09/29 11:40:13;;;;;;;2.42;2.22;;;;;;;;;;5075530;28;20043;-76
2023/09/29 11:42:40;;;;;;;3.47;2.63;;;;;;;;;;5074935;28;20028;-77
2023/09/29 11:45:10;;;;;;;3.35;2.40;;;;;;;;;;5094062;28;20107;-77
2023/09/29 11:47:39;;;;;;;3.15;2.25;;;;;;;;;;5095755;28;20024;-77
2023/09/29 11:50:05;;;;;;;3.03;2.72;;;;;;;;;;5095391;28;20020;-76
2023/09/29 11:52:33;;;;;;;3.17;2.85;;;;;;;;;;5095367;28;20051;-76
2023/09/29 11:54:59;;;;;;;2.50;2.30;;;;;;;;;;5079720;28;20050;-76
2023/09/29 11:57:25;;;;;;;2.90;2.30;;;;;;;;;;5074655;28;20081;-76
2023/09/29 11:59:51;;;;;;;2.55;2.30;;;;;;;;;;5074287;28;20033;-76
2023/09/29 12:02:17;;;;;;;3.08;2.70;;;;;;;;;;5075343;28;20029;-76
2023/09/29 12:04:43;;;;;;;2.58;2.20;;;;;;;;;;5074990;28;20471;-76
2023/09/29 12:07:09;;;;;;;2.53;2.10;;;;;;;;;;5074885;28;20047;-76
2023/09/29 12:09:36;;;;;;;2.55;2.30;;;;;;;;;;5074666;28;20024;-77
2023/09/29 12:12:03;;;;;;;2.88;2.30;;;;;;;;;;5095419;28;20024;-75
2023/09/29 12:14:29;;;;;;;3.38;2.33;;;;;;;;;;5079371;28;20051;-76
2023/09/29 12:16:55;;;;;;;2.20;2.00;;;;;;;;;;5074716;28;20028;-76
2023/09/29 12:19:21;;;;;;;2.25;2.05;;;;;;;;;;5074087;28;20025;-76
2023/09/29 12:21:47;;;;;;;3.75;2.25;;;;;;;;;;5072742;28;20085;-77
2023/09/29 12:24:14;;;;;;;2.15;2.03;;;;;;;;;;5074778;28;20074;-76
2023/09/29 12:26:46;;;;;;;2.20;2.00;;;;;;;;;;5094179;28;20082;-76
2023/09/29 12:29:12;;;;;;;;;;;;;;;;;;5094279;28;20088;-76
2023/09/29 12:31:38;;;;;;;1.90;1.75;;;;;;;;;;5094444;28;19904;-75
2023/09/29 12:34:04;;;;;;;2.10;1.90;;;;;;;;;;5094629;28;20256;-76
2023/09/29 12:36:31;;;;;;;3.17;2.30;;;;;;;;;;5104813;28;20024;-76
2023/09/29 12:38:58;;;;;;;2.20;2.10;;;;;;;;;;5103235;28;20047;-75
2023/09/29 12:41:25;;;;;;;6.38;2.33;;;;;;;;;;5082765;28;20033;-75
2023/09/29 12:43:51;;;;;;;2.25;1.98;;;;;;;;;;5074060;28;20013;-75
2023/09/29 12:46:17;;;;;;;2.03;1.92;;;;;;;;;;5084733;28;20158;-75
2023/09/29 12:48:44;;;;;;;2.22;2.13;;;;;;;;;;5094524;28;20016;-76
2023/09/29 12:51:18;;;;;;;2.22;2.03;;;;;;;;;;5096279;28;20025;-76
2023/09/29 12:53:44;;;;;;;3.55;1.80;;;;;;;;;;5094056;28;20028;-76
2023/09/29 12:56:14;;;;;;;2.03;1.90;;;;;;;;;;5085657;28;20037;-76
2023/09/29 12:58:40;;;;;;;3.45;2.25;;;;;;;;;;5074158;28;20059;-76
2023/09/29 13:01:06;;;;;;;2.10;1.90;;;;;;;;;;5079136;28;20483;-76
2023/09/29 13:03:32;;;;;;;3.47;2.40;;;;;;;;;;5075343;28;20020;-75
2023/09/29 13:06:03;;;;;;;3.08;2.28;;;;;;;;;;5077667;28;20016;-76
2023/09/29 13:08:30;;;;;;;2.20;2.00;;;;;;;;;;5104221;28;20084;-75
2023/09/29 13:10:56;;;;;;;2.38;2.13;;;;;;;;;;5112257;28;20056;-74
2023/09/29 13:13:23;;;;;;;2.33;2.10;;;;;;;;;;5113131;28;20016;-75
2023/09/29 13:15:52;;;;;;;2.35;2.08;;;;;;;;;;5108450;28;20039;-75
2023/09/29 13:18:19;;;;;;;4.40;2.70;;;;;;;;;;5085540;28;20032;-75
2023/09/29 13:20:46;;;;;;;2.83;2.22;;;;;;;;;;5082353;28;20080;-75
2023/09/29 13:23:13;;;;;;;2.03;1.80;;;;;;;;;;5079122;28;20024;-75
2023/09/29 13:25:39;;;;;;;2.13;2.00;;;;;;;;;;5079199;28;20035;-74
2023/09/29 13:28:06;;;;;;;2.38;2.17;;;;;;;;;;5074758;28;20477;-75
2023/09/29 13:30:32;;;;;;;2.42;2.22;;;;;;;;;;5074105;28;20397;-77
2023/09/29 13:32:58;;;;;;;1.92;1.83;;;;;;;;;;5073503;28;20025;-76
2023/09/29 13:35:24;;;;;;;1.88;1.77;;;;;;;;;;5072511;28;20047;-75
2023/09/29 13:37:50;;;;;;;1.88;1.77;;;;;;;;;;5082561;28;20032;-76
2023/09/29 13:40:16;;;;;;;3.00;1.70;;;;;;;;;;5092634;28;20107;-76
2023/09/29 13:42:44;;;;;;;2.83;2.60;;;;;;;;;;5092016;28;20016;-76
2023/09/29 13:45:11;;;;;;;2.80;2.22;;;;;;;;;;5093372;28;20020;-76
2023/09/29 13:47:37;;;;;;;2.25;2.05;;;;;;;;;;5091617;28;20028;-76
2023/09/29 13:50:04;;;;;;;3.00;2.13;;;;;;;;;;5092821;28;20478;-75
2023/09/29 13:52:30;;;;;;;1.95;1.85;;;;;;;;;;5092511;28;20039;-77
2023/09/29 13:54:57;;;;;;;1.98;1.88;;;;;;;;;;5093036;28;20421;-76
2023/09/29 13:57:24;;;;;;;2.88;2.00;;;;;;;;;;5094114;28;20099;-77
2023/09/29 13:59:50;;;;;;;2.25;2.05;;;;;;;;;;5076424;28;20479;-75
2023/09/29 14:02:16;;;;;;;3.13;1.75;;;;;;;;;;5076049;28;20024;-76
2023/09/29 14:04:42;;;;;;;1.90;1.80;;;;;;;;;;5076248;28;20462;-76
2023/09/29 14:07:08;;;;;;;1.88;1.77;;;;;;;;;;5077429;28;20048;-75
2023/09/29 14:09:38;;;;;;;1.70;1.60;;;;;;;;;;5095619;28;20372;-76
2023/09/29 14:12:05;;;;;;;2.13;1.85;;;;;;;;;;5104391;28;20103;-76
2023/09/29 14:14:32;;;;;;;3.88;1.85;;;;;;;;;;5104668;28;20084;-76
2023/09/29 14:16:58;;;;;;;2.25;1.90;;;;;;;;;;5096860;28;20036;-77
2023/09/29 14:19:24;;;;;;;1.83;1.73;;;;;;;;;;5081852;28;20037;-76
2023/09/29 14:21:50;;;;;;;1.90;1.80;;;;;;;;;;5075400;28;20112;-76
2023/09/29 14:24:20;;;;;;;1.98;1.67;;;;;;;;;;5074395;28;20103;-76
2023/09/29 14:26:46;;;;;;;1.80;1.70;;;;;;;;;;5076300;28;20107;-75
2023/09/29 14:29:12;;;;;;;2.28;2.08;;;;;;;;;;5086152;28;20096;-75
2023/09/29 14:31:44;;;;;;;2.05;1.95;;;;;;;;;;5096950;28;20036;-75
2023/09/29 14:34:10;;;;;;;1.88;1.77;;;;;;;;;;5096746;28;20047;-75
2023/09/29 14:36:36;;;;;;;1.80;1.70;;;;;;;;;;5097083;28;20150;-75
2023/09/29 14:39:03;;;;;;;1.75;1.65;;;;;;;;;;5091099;28;20382;-75
2023/09/29 14:41:29;;;;;;;1.95;1.85;;;;;;;;;;5078619;28;20093;-76
2023/09/29 14:43:55;;;;;;;1.83;1.73;;;;;;;;;;5077502;28;20039;-76
2023/09/29 14:46:22;;;;;;;2.13;1.92;;;;;;;;;;5076464;28;20028;-76
2023/09/29 14:48:50;;;;;;;1.80;1.70;;;;;;;;;;5077408;28;20095;-76
2023/09/29 14:51:16;;;;;;;2.28;2.00;;;;;;;;;;5096303;28;20024;-77
2023/09/29 14:53:42;;;;;;;2.67;2.47;;;;;;;;;;5097219;28;20031;-77
2023/09/29 14:56:09;;;;;;;2.20;2.00;;;;;;;;;;5096536;28;20107;-75
2023/09/29 14:58:35;;;;;;;1.83;1.73;;;;;;;;;;5096956;28;20584;-76
2023/09/29 15:01:02;;;;;;;3.00;1.77;;;;;;;;;;5080017;28;20102;-76
2023/09/29 15:03:31;;;;;;;1.70;1.60;;;;;;;;;;5076400;28;20386;-78
2023/09/29 15:05:58;;;;;;;4.05;1.95;;;;;;;;;;5075203;28;20103;-77
2023/09/29 15:08:24;;;;;;;4.43;1.92;;;;;;;;;;5075601;28;20103;-76
2023/09/29 15:10:50;;;;;;;2.05;1.92;;;;;;;;;;5086438;28;20024;-76
2023/09/29 15:13:16;;;;;;;4.32;2.05;;;;;;;;;;5096395;28;20032;-77
2023/09/29 15:15:43;;;;;;;2.30;2.10;;;;;;;;;;5096665;28;20043;-76
2023/09/29 15:18:09;;;;;;;2.08;1.90;;;;;;;;;;5096319;28;20031;-77
2023/09/29 15:20:38;;;;;;;2.35;2.15;;;;;;;;;;5089520;28;20024;-75
2023/09/29 15:23:04;;;;;;;1.90;1.80;;;;;;;;;;5075705;28;20025;-75
2023/09/29 15:25:30;;;;;;;2.30;2.10;;;;;;;;;;5077033;28;20409;-76
2023/09/29 15:27:57;;;;;;;4.22;2.20;;;;;;;;;;5076140;28;20050;-76